sensor_id;sensor_type;location;lat;lon;timestamp;temperature;humidity
34061;DHT22;20336;-33.424;-70.638;2022-11-20T00:01:17;22.50;96.10
34061;DHT22;20336;-33.424;-70.638;2022-11-20T00:03:44;22.30;96.50
34061;DHT22;20336;-33.424;-70.638;2022-11-20T00:06:13;22.50;96.90
34061;DHT22;20336;-33.424;-70.638;2022-11-20T00:08:41;22.10;97.50
34061;DHT22;20336;-33.424;-70.638;2022-11-20T00:11:13;22.20;98.20
34061;DHT22;20336;-33.424;-70.638;2022-11-20T00:13:40;22.00;97.20
34061;DHT22;20336;-33.424;-70.638;2022-11-20T00:16:09;21.50;98.60
34061;DHT22;20336;-33.424;-70.638;2022-11-20T00:18:36;21.30;98.80
34061;DHT22;20336;-33.424;-70.638;2022-11-20T00:21:05;21.30;99.20
34061;DHT22;20336;-33.424;-70.638;2022-11-20T00:23:32;21.10;99.90
34061;DHT22;20336;-33.424;-70.638;2022-11-20T00:26:06;20.90;99.90
34061;DHT22;20336;-33.424;-70.638;2022-11-20T00:28:34;20.70;99.90
34061;DHT22;20336;-33.424;-70.638;2022-11-20T00:31:05;20.80;99.90
34061;DHT22;20336;-33.424;-70.638;2022-11-20T00:33:32;20.70;99.90
34061;DHT22;20336;-33.424;-70.638;2022-11-20T00:36:04;20.70;99.90
34061;DHT22;20336;-33.424;-70.638;2022-11-20T00:38:31;20.60;99.90
34061;DHT22;20336;-33.424;-70.638;2022-11-20T00:41:03;20.50;99.90
34061;DHT22;20336;-33.424;-70.638;2022-11-20T00:43:30;20.50;99.90
34061;DHT22;20336;-33.424;-70.638;2022-11-20T00:46:00;20.50;99.90
34061;DHT22;20336;-33.424;-70.638;2022-11-20T00:48:28;20.40;99.90
34061;DHT22;20336;-33.424;-70.638;2022-11-20T00:50:55;20.40;99.90
34061;DHT22;20336;-33.424;-70.638;2022-11-20T00:53:22;20.30;99.90
34061;DHT22;20336;-33.424;-70.638;2022-11-20T00:56:03;20.30;99.90
34061;DHT22;20336;-33.424;-70.638;2022-11-20T00:58:36;20.30;99.90
34061;DHT22;20336;-33.424;-70.638;2022-11-20T01:01:19;20.20;99.90
34061;DHT22;20336;-33.424;-70.638;2022-11-20T01:03:48;20.10;99.90
34061;DHT22;20336;-33.424;-70.638;2022-11-20T01:06:27;20.10;99.90
34061;DHT22;20336;-33.424;-70.638;2022-11-20T01:08:56;20.00;99.90
34061;DHT22;20336;-33.424;-70.638;2022-11-20T01:11:25;19.90;99.90
34061;DHT22;20336;-33.424;-70.638;2022-11-20T01:13:54;20.00;99.90
34061;DHT22;20336;-33.424;-70.638;2022-11-20T01:16:27;19.90;99.90
34061;DHT22;20336;-33.424;-70.638;2022-11-20T01:18:57;19.90;99.90
34061;DHT22;20336;-33.424;-70.638;2022-11-20T01:21:26;19.80;99.90
34061;DHT22;20336;-33.424;-70.638;2022-11-20T01:23:54;19.60;99.90
34061;DHT22;20336;-33.424;-70.638;2022-11-20T01:26:23;19.60;99.90
34061;DHT22;20336;-33.424;-70.638;2022-11-20T01:28:50;19.60;99.90
34061;DHT22;20336;-33.424;-70.638;2022-11-20T01:31:26;19.50;99.90
34061;DHT22;20336;-33.424;-70.638;2022-11-20T01:33:56;19.60;99.90
34061;DHT22;20336;-33.424;-70.638;2022-11-20T01:36:24;19.50;99.90
34061;DHT22;20336;-33.424;-70.638;2022-11-20T01:38:52;19.50;99.90
34061;DHT22;20336;-33.424;-70.638;2022-11-20T01:41:20;19.40;99.90
34061;DHT22;20336;-33.424;-70.638;2022-11-20T01:44:05;19.40;99.90
34061;DHT22;20336;-33.424;-70.638;2022-11-20T01:46:35;19.20;99.90
34061;DHT22;20336;-33.424;-70.638;2022-11-20T01:51:39;19.00;99.90
34061;DHT22;20336;-33.424;-70.638;2022-11-20T01:54:13;18.90;99.90
34061;DHT22;20336;-33.424;-70.638;2022-11-20T01:56:42;18.90;99.90
34061;DHT22;20336;-33.424;-70.638;2022-11-20T01:59:13;18.80;99.90
34061;DHT22;20336;-33.424;-70.638;2022-11-20T02:01:41;18.80;99.90
34061;DHT22;20336;-33.424;-70.638;2022-11-20T02:04:08;18.80;99.90
34061;DHT22;20336;-33.424;-70.638;2022-11-20T02:06:47;18.80;99.90
34061;DHT22;20336;-33.424;-70.638;2022-11-20T02:09:15;18.80;99.90
34061;DHT22;20336;-33.424;-70.638;2022-11-20T02:11:42;18.70;99.90
34061;DHT22;20336;-33.424;-70.638;2022-11-20T02:14:10;18.70;99.90
34061;DHT22;20336;-33.424;-70.638;2022-11-20T02:16:45;18.50;99.90
34061;DHT22;20336;-33.424;-70.638;2022-11-20T02:19:32;18.60;99.90
34061;DHT22;20336;-33.424;-70.638;2022-11-20T02:22:13;18.50;99.90
34061;DHT22;20336;-33.424;-70.638;2022-11-20T02:24:41;18.50;99.90
34061;DHT22;20336;-33.424;-70.638;2022-11-20T02:27:12;18.50;99.90
34061;DHT22;20336;-33.424;-70.638;2022-11-20T02:32:06;18.50;99.90
34061;DHT22;20336;-33.424;-70.638;2022-11-20T02:34:33;18.50;99.90
34061;DHT22;20336;-33.424;-70.638;2022-11-20T02:37:00;18.50;99.90
34061;DHT22;20336;-33.424;-70.638;2022-11-20T02:39:28;18.50;99.90
34061;DHT22;20336;-33.424;-70.638;2022-11-20T02:41:56;18.30;99.90
34061;DHT22;20336;-33.424;-70.638;2022-11-20T02:44:23;18.20;99.90
34061;DHT22;20336;-33.424;-70.638;2022-11-20T02:46:50;18.30;99.90
34061;DHT22;20336;-33.424;-70.638;2022-11-20T02:49:17;18.40;99.90
34061;DHT22;20336;-33.424;-70.638;2022-11-20T02:51:45;18.20;99.90
34061;DHT22;20336;-33.424;-70.638;2022-11-20T02:54:13;18.10;99.90
34061;DHT22;20336;-33.424;-70.638;2022-11-20T02:56:40;18.10;99.90
34061;DHT22;20336;-33.424;-70.638;2022-11-20T02:59:07;18.10;99.90
